Time;durP1;ratioP1;P1;durP2;ratioP2;P2;SDS_P1;SDS_P2;PMS_P1;PMS_P2;Temp;Humidity;BMP_temperature;BMP_pressure;BME280_temperature;BME280_humidity;BME280_pressure;Samples;Min_cycle;Max_cycle;Signal;HPM_P1;HPM_P2
2021/05/30 00:01:50;;;;;;;;;;;;;;;11.30;100.00;100113.75;5029303;28;19989;-64
2021/05/30 00:04:15;;;;;;;;;;;;;;;11.51;100.00;100115.09;5018597;28;19961;-64
2021/05/30 00:06:41;;;;;;;;;;;;;;;11.53;100.00;100120.25;5032484;28;19917;-64
2021/05/30 00:09:06;;;;;;;;;;;;;;;11.17;100.00;100121.72;5043860;28;19913;-64
2021/05/30 00:11:34;;;;;;;;;;;;;;;11.40;100.00;100118.75;5030402;28;19942;-63
2021/05/30 00:14:00;;;;;;;;;;;;;;;11.73;100.00;100118.16;5038012;28;19914;-63
2021/05/30 00:16:25;;;;;;;;;;;;;;;11.37;100.00;100122.25;5031540;28;19923;-63
2021/05/30 00:18:50;;;;;;;;;;;;;;;11.57;100.00;100121.91;5035667;28;20036;-64
2021/05/30 00:21:16;;;;;;;;;;;;;;;11.59;100.00;100124.47;5035663;28;20087;-63
2021/05/30 00:23:41;;;;;;;;;;;;;;;11.48;100.00;100128.06;5037971;28;19919;-63
2021/05/30 00:26:06;;;;;;;;;;;;;;;11.75;100.00;100125.03;5031445;28;19983;-64
2021/05/30 00:28:32;;;;;;;;;;;;;;;11.54;100.00;100115.94;5043875;28;19917;-64
2021/05/30 00:30:57;;;;;;;;;;;;;;;11.52;100.00;100113.41;5033464;28;20444;-64
2021/05/30 00:33:22;;;;;;;;;;;;;;;11.48;100.00;100117.75;5050944;28;19928;-63
2021/05/30 00:35:48;;;;;;;;;;;;;;;11.58;100.00;100113.25;5055835;28;19928;-64
2021/05/30 00:38:13;;;;;;;;;;;;;;;11.81;100.00;100122.31;5052987;28;19952;-63
2021/05/30 00:40:41;;;;;;;;;;;;;;;12.01;100.00;100122.81;5057924;28;20007;-64
2021/05/30 00:43:06;;;;;;;;;;;;;;;11.92;100.00;100117.81;5055510;28;19935;-63
2021/05/30 00:45:31;;;;;;;;;;;;;;;11.62;100.00;100121.81;5051257;28;19920;-63
2021/05/30 00:47:57;;;;;;;;;;;;;;;11.33;100.00;100117.16;5054831;28;19958;-64
2021/05/30 00:50:22;;;;;;;;;;;;;;;11.48;100.00;100117.75;5053604;28;19913;-63
2021/05/30 00:52:48;;;;;;;;;;;;;;;11.64;100.00;100123.47;5052942;28;19956;-63
2021/05/30 00:55:13;;;;;;;;;;;;;;;11.39;100.00;100117.06;5035594;28;19917;-63
2021/05/30 00:57:39;;;;;;;;;;;;;;;11.27;100.00;100126.72;5053121;28;20457;-64
2021/05/30 01:00:05;;;;;;;;;;;;;;;11.30;100.00;100121.50;5050407;28;20084;-64
2021/05/30 01:02:30;;;;;;;;;;;;;;;11.20;100.00;100116.50;5021070;28;20297;-63
2021/05/30 01:04:56;;;;;;;;;;;;;;;10.87;100.00;100124.75;5053306;28;19923;-63
2021/05/30 01:07:21;;;;;;;;;;;;;;;11.34;100.00;100116.31;5051126;28;19928;-63
2021/05/30 01:09:47;;;;;;;;;;;;;;;11.35;100.00;100118.00;5056775;28;19917;-63
2021/05/30 01:12:13;;;;;;;;;;;;;;;10.84;100.00;100119.66;5062577;28;19966;-63
2021/05/30 01:14:38;;;;;;;;;;;;;;;10.72;100.00;100124.13;5040890;28;19917;-63
2021/05/30 01:17:07;;;;;;;;;;;;;;;10.82;100.00;100125.72;5038345;28;19916;-63
2021/05/30 01:19:33;;;;;;;;;;;;;;;10.97;100.00;100127.19;5064049;28;19917;-64
2021/05/30 01:21:58;;;;;;;;;;;;;;;11.35;100.00;100131.72;5037434;28;20400;-63
2021/05/30 01:24:24;;;;;;;;;;;;;;;10.88;100.00;100131.63;5054894;28;20004;-63
2021/05/30 01:26:49;;;;;;;;;;;;;;;11.24;100.00;100129.34;5057615;28;19931;-63
2021/05/30 01:29:16;;;;;;;;;;;;;;;10.72;100.00;100127.59;5059113;28;19921;-63
2021/05/30 01:31:41;;;;;;;;;;;;;;;11.32;100.00;100125.78;5055397;28;20369;-64
2021/05/30 01:34:06;;;;;;;;;;;;;;;10.65;100.00;100128.50;5058029;28;19924;-63
2021/05/30 01:36:32;;;;;;;;;;;;;;;10.73;100.00;100121.53;5050693;28;19983;-63
2021/05/30 01:38:57;;;;;;;;;;;;;;;11.08;100.00;100117.56;5059055;28;19920;-64
2021/05/30 01:41:23;;;;;;;;;;;;;;;10.80;100.00;100117.16;5057139;28;20267;-63
2021/05/30 01:43:48;;;;;;;;;;;;;;;10.92;100.00;100124.69;5054692;28;19920;-63
2021/05/30 01:46:13;;;;;;;;;;;;;;;10.33;100.00;100118.66;5041176;28;19921;-63
2021/05/30 01:48:39;;;;;;;;;;;;;;;10.32;100.00;100122.97;5054705;28;19913;-64
2021/05/30 01:51:04;;;;;;;;;;;;;;;10.15;100.00;100123.16;5054466;28;19917;-64
2021/05/30 01:58:43;;;;;;;;;;;;;;;10.06;100.00;100123.28;5059528;28;19993;-63
2021/05/30 02:01:12;;;;;;;;;;;;;;;9.78;100.00;100130.44;5057998;28;19917;-63
2021/05/30 02:03:38;;;;;;;;;;;;;;;9.94;100.00;100128.53;5057923;28;19924;-63
2021/05/30 02:06:03;;;;;;;;;;;;;;;10.27;100.00;100127.28;5037118;28;19917;-64
2021/05/30 02:08:29;;;;;;;;;;;;;;;10.17;100.00;100131.72;5024419;28;19924;-63
2021/05/30 02:10:54;;;;;;;;;;;;;;;10.05;100.00;100127.53;5038401;28;19920;-63
2021/05/30 02:13:20;;;;;;;;;;;;;;;9.67;100.00;100129.69;5058507;28;19913;-63
2021/05/30 02:15:46;;;;;;;;;;;;;;;10.42;100.00;100121.97;5037616;28;19920;-63
2021/05/30 02:18:11;;;;;;;;;;;;;;;10.75;100.00;100124.94;5035448;28;19912;-63
2021/05/30 02:20:38;;;;;;;;;;;;;;;11.28;100.00;100125.81;5062862;28;19917;-63
2021/05/30 02:23:03;;;;;;;;;;;;;;;11.40;100.00;100114.44;5057180;28;20282;-64
2021/05/30 02:25:29;;;;;;;;;;;;;;;11.32;100.00;100115.47;5062126;28;19926;-63
2021/05/30 02:27:54;;;;;;;;;;;;;;;10.39;100.00;100116.84;5056250;28;20019;-63
2021/05/30 02:30:20;;;;;;;;;;;;;;;10.64;100.00;100116.53;5056050;28;19917;-63
2021/05/30 02:32:46;;;;;;;;;;;;;;;10.59;100.00;100114.00;5060368;28;19991;-64
2021/05/30 02:35:12;;;;;;;;;;;;;;;10.63;100.00;100114.84;5057500;28;19917;-63
2021/05/30 02:37:37;;;;;;;;;;;;;;;10.18;100.00;100117.13;5056583;28;19928;-63
2021/05/30 02:40:03;;;;;;;;;;;;;;;9.78;100.00;100127.84;5057402;28;19956;-63
2021/05/30 02:42:29;;;;;;;;;;;;;;;9.76;100.00;100124.44;5042337;28;20011;-63
2021/05/30 02:44:54;;;;;;;;;;;;;;;9.71;100.00;100127.06;5060232;28;20442;-64
2021/05/30 02:47:19;;;;;;;;;;;;;;;10.02;100.00;100132.72;5061062;28;19921;-63
2021/05/30 02:49:45;;;;;;;;;;;;;;;9.77;100.00;100131.31;5042597;28;19974;-63
2021/05/30 02:52:10;;;;;;;;;;;;;;;10.54;100.00;100130.41;5061126;28;19958;-63
2021/05/30 02:54:35;;;;;;;;;;;;;;;10.65;100.00;100124.25;5058174;28;19913;-63
2021/05/30 02:57:01;;;;;;;;;;;;;;;10.41;100.00;100133.13;5052980;28;19916;-64
2021/05/30 02:59:26;;;;;;;;;;;;;;;10.46;100.00;100128.78;5057932;28;20011;-64
2021/05/30 03:01:51;;;;;;;;;;;;;;;10.72;100.00;100129.28;5036324;28;19920;-63
2021/05/30 03:04:17;;;;;;;;;;;;;;;9.69;100.00;100125.38;5051421;28;19917;-63
2021/05/30 03:06:42;;;;;;;;;;;;;;;9.60;100.00;100116.91;5055781;28;19999;-64
2021/05/30 03:09:07;;;;;;;;;;;;;;;10.56;100.00;100111.50;5057047;28;19919;-64
2021/05/30 03:11:33;;;;;;;;;;;;;;;10.15;100.00;100114.56;5062045;28;19912;-63
2021/05/30 03:13:58;;;;;;;;;;;;;;;10.15;100.00;100111.97;5066065;28;19920;-63
2021/05/30 03:16:23;;;;;;;;;;;;;;;10.58;100.00;100112.31;5056622;28;19919;-63
2021/05/30 03:25:01;;;;;;;;;;;;;;;8.84;100.00;100114.97;5049627;28;20697;-64
2021/05/30 03:27:26;;;;;;;;;;;;;;;8.31;100.00;100120.38;5041895;28;19916;-64
2021/05/30 03:29:53;;;;;;;;;;;;;;;8.47;100.00;100125.47;5032150;28;19917;-63
2021/05/30 03:32:19;;;;;;;;;;;;;;;8.78;100.00;100126.13;5037366;28;19924;-63
2021/05/30 03:34:44;;;;;;;;;;;;;;;8.62;100.00;100125.41;5020401;28;19914;-63
2021/05/30 03:37:10;;;;;;;;;;;;;;;8.78;100.00;100126.13;5019199;28;20471;-63
2021/05/30 03:40:16;;;;;;;;;;;;;;;;;;;;;
2021/05/30 03:43:21;;;;;;;;;;;;;;;8.90;100.00;100125.22;5023813;28;19921;-63
2021/05/30 03:46:23;;;;;;;;;;;;;;;8.84;100.00;100130.38;4980888;28;19921;-62
2021/05/30 03:49:13;;;;;;;;;;;;;;;8.56;100.00;100135.69;5019870;28;19918;-63
2021/05/30 03:52:08;;;;;;;;;;;;;;;8.73;100.00;100136.44;4993815;28;19913;-63
2021/05/30 03:57:55;;;;;;;;;;;;;;;8.94;100.00;100135.47;4908764;29;19923;-63
2021/05/30 04:00:21;;;;;;;;;;;;;;;8.75;100.00;100139.84;4928708;28;20073;-64
2021/05/30 04:02:46;;;;;;;;;;;;;;;8.94;100.00;100132.91;4950465;28;19917;-64
2021/05/30 04:05:12;;;;;;;;;;;;;;;8.95;100.00;100141.44;4974401;28;20299;-63
2021/05/30 04:07:38;;;;;;;;;;;;;;;9.02;100.00;100134.56;4957583;28;20330;-63
2021/05/30 04:10:06;;;;;;;;;;;;;;;9.16;100.00;100128.44;4971314;28;19914;-63
2021/05/30 04:12:32;;;;;;;;;;;;;;;9.13;100.00;100136.16;4967814;28;20531;-63
2021/05/30 04:14:57;;;;;;;;;;;;;;;9.27;100.00;100132.63;4941642;28;19992;-63
2021/05/30 04:17:28;;;;;;;;;;;;;;;9.25;100.00;100127.50;4970742;28;19961;-63
2021/05/30 04:19:53;;;;;;;;;;;;;;;9.46;100.00;100129.03;4963592;28;20013;-64
2021/05/30 04:22:19;;;;;;;;;;;;;;;9.77;100.00;100137.28;4971797;28;20348;-63
2021/05/30 04:24:44;;;;;;;;;;;;;;;9.79;100.00;100129.56;4980794;28;19913;-63
2021/05/30 04:27:09;;;;;;;;;;;;;;;9.84;100.00;100128.63;5022404;28;19940;-63
2021/05/30 04:29:35;;;;;;;;;;;;;;;9.84;100.00;100135.50;5017192;28;19921;-63
2021/05/30 04:32:02;;;;;;;;;;;;;;;9.93;100.00;100132.84;5019892;28;19921;-63
2021/05/30 04:34:27;;;;;;;;;;;;;;;10.11;100.00;100130.94;5051989;28;20657;-63
2021/05/30 04:36:53;;;;;;;;;;;;;;;9.96;100.00;100132.78;5055178;28;19960;-64
2021/05/30 04:39:18;;;;;;;;;;;;;;;9.79;100.00;100125.28;5053805;28;20378;-63
2021/05/30 04:41:43;;;;;;;;;;;;;;;9.71;100.00;100129.63;5053728;28;19971;-63
2021/05/30 04:44:33;;;;;;;;;;;;;;;9.78;100.00;100138.13;5050572;28;20276;-63
2021/05/30 04:46:59;;;;;;;;;;;;;;;9.82;100.00;100132.94;5021624;28;19939;-63
2021/05/30 04:49:24;;;;;;;;;;;;;;;9.96;100.00;100135.38;5060211;28;19917;-63
2021/05/30 04:51:49;;;;;;;;;;;;;;;10.16;100.00;100131.72;5069144;28;19919;-63
2021/05/30 04:54:15;;;;;;;;;;;;;;;10.31;100.00;100130.69;5064700;28;19924;-63
2021/05/30 04:59:43;;;;;;;;;;;;;;;10.38;100.00;100135.75;5047066;28;19936;-64
2021/05/30 05:02:08;;;;;;;;;;;;;;;10.58;100.00;100139.78;5067404;28;19912;-64
2021/05/30 05:04:33;;;;;;;;;;;;;;;10.59;100.00;100138.94;5070482;28;19919;-63
2021/05/30 05:06:59;;;;;;;;;;;;;;;10.73;100.00;100137.00;5054804;28;19917;-63
2021/05/30 05:09:24;;;;;;;;;;;;;;;10.97;100.00;100133.22;5032866;28;20297;-63
2021/05/30 05:11:49;;;;;;;;;;;;;;;10.95;100.00;100134.09;5032550;28;19962;-64
